createdAt,value
2022-12-13T00:01:31.638Z,73.10
2022-12-13T00:04:02.011Z,72.97
2022-12-13T00:06:30.633Z,73.06
2022-12-13T00:09:00.351Z,73.12
2022-12-13T00:11:28.487Z,73.36
2022-12-13T00:13:56.772Z,73.24
2022-12-13T00:16:26.153Z,72.99
2022-12-13T00:18:56.733Z,73.10
2022-12-13T00:21:27.236Z,73.15
2022-12-13T00:23:55.258Z,73.04
2022-12-13T00:26:26.428Z,72.76
2022-12-13T00:28:55.014Z,72.67
2022-12-13T00:34:13.560Z,72.78
2022-12-13T00:36:41.351Z,73.13
2022-12-13T00:39:12.670Z,73.28
2022-12-13T00:41:41.979Z,73.18
2022-12-13T00:44:11.546Z,73.16
2022-12-13T00:46:39.924Z,73.21
2022-12-13T00:49:07.667Z,72.72
2022-12-13T00:51:35.666Z,73.08
2022-12-13T00:54:03.501Z,72.97
2022-12-13T00:56:33.220Z,73.13
2022-12-13T00:59:02.493Z,72.51
2022-12-13T01:01:34.214Z,72.49
2022-12-13T01:04:04.171Z,72.75
2022-12-13T01:06:36.666Z,72.95
2022-12-13T01:09:06.322Z,72.75
2022-12-13T01:11:34.162Z,72.52
2022-12-13T01:14:03.440Z,72.70
2022-12-13T01:16:31.302Z,72.60
2022-12-13T01:18:59.152Z,72.85
2022-12-13T01:21:26.926Z,72.42
2022-12-13T01:24:01.804Z,72.31
2022-12-13T01:26:29.638Z,72.32
2022-12-13T01:28:57.401Z,72.54
2022-12-13T01:31:26.971Z,72.97
2022-12-13T01:33:54.719Z,73.10
2022-12-13T01:36:27.963Z,72.49
2022-12-13T01:38:58.515Z,73.07
2022-12-13T01:41:29.197Z,72.73
2022-12-13T01:44:03.010Z,73.08
2022-12-13T01:46:33.855Z,73.11
2022-12-13T01:49:06.309Z,72.94
2022-12-13T01:51:53.059Z,72.60
2022-12-13T01:54:33.678Z,72.60
2022-12-13T01:57:05.307Z,72.79
2022-12-13T01:59:34.478Z,72.87
2022-12-13T02:02:04.706Z,72.96
2022-12-13T02:04:43.763Z,72.87
2022-12-13T02:07:14.121Z,72.74
2022-12-13T02:09:56.393Z,72.76
2022-12-13T02:12:29.539Z,72.49
2022-12-13T02:15:00.516Z,72.51
2022-12-13T02:17:44.499Z,72.63
2022-12-13T02:20:47.057Z,72.35
2022-12-13T02:23:47.906Z,72.64
2022-12-13T02:26:36.463Z,72.50
2022-12-13T02:29:31.077Z,72.82
2022-12-13T02:32:06.346Z,72.93
2022-12-13T02:34:39.673Z,73.17
2022-12-13T02:37:17.900Z,73.69
2022-12-13T02:39:52.203Z,73.99
2022-12-13T02:42:25.089Z,73.81
2022-12-13T02:44:58.178Z,74.00
2022-12-13T02:47:28.795Z,74.02
2022-12-13T02:49:59.760Z,73.87
2022-12-13T02:52:30.088Z,74.12
2022-12-13T02:54:58.929Z,74.17
2022-12-13T02:57:31.538Z,74.33
2022-12-13T03:00:02.909Z,74.00
2022-12-13T03:02:43.634Z,74.09
2022-12-13T03:05:39.353Z,74.23
2022-12-13T03:08:20.451Z,74.16
2022-12-13T03:10:57.699Z,74.19
2022-12-13T03:13:38.639Z,74.46
2022-12-13T03:16:12.769Z,74.11
2022-12-13T03:18:42.912Z,74.14
2022-12-13T03:21:10.994Z,74.10
2022-12-13T03:23:39.418Z,74.01
2022-12-13T03:26:11.275Z,74.40
2022-12-13T03:28:39.522Z,74.57
2022-12-13T03:31:08.559Z,73.86
2022-12-13T03:33:36.486Z,74.30
2022-12-13T03:36:07.969Z,74.07
2022-12-13T03:38:36.531Z,74.17
2022-12-13T03:41:08.157Z,73.85
2022-12-13T03:43:35.985Z,73.45
2022-12-13T03:46:03.877Z,74.13
2022-12-13T03:48:31.752Z,73.92
2022-12-13T03:50:59.529Z,73.79
2022-12-13T03:53:34.078Z,73.37
2022-12-13T03:56:04.069Z,73.51
2022-12-13T03:58:36.134Z,73.56
2022-12-13T04:01:10.326Z,73.43
2022-12-13T04:03:38.976Z,73.44
2022-12-13T04:06:07.936Z,73.52
2022-12-13T04:08:38.049Z,73.66
2022-12-13T04:11:26.734Z,73.04
2022-12-13T04:13:54.661Z,72.83
2022-12-13T04:16:23.749Z,73.37
2022-12-13T04:18:51.783Z,72.86
2022-12-13T04:21:19.585Z,72.92
2022-12-13T04:23:48.800Z,72.13
2022-12-13T04:26:16.555Z,72.59
2022-12-13T04:28:47.006Z,72.54
2022-12-13T04:31:18.696Z,72.00
2022-12-13T04:33:46.461Z,72.52
2022-12-13T04:36:32.292Z,72.64
2022-12-13T04:39:02.653Z,72.36
2022-12-13T04:41:35.976Z,72.04
2022-12-13T04:44:05.021Z,71.57
2022-12-13T04:46:32.833Z,71.84
2022-12-13T04:49:00.576Z,71.66
2022-12-13T04:51:28.805Z,71.28
2022-12-13T04:53:56.553Z,71.15
2022-12-13T04:56:45.606Z,71.40
2022-12-13T04:59:14.147Z,71.22
2022-12-13T05:01:42.032Z,71.28
2022-12-13T05:04:09.857Z,71.55
2022-12-13T05:06:37.587Z,71.63
2022-12-13T05:09:05.312Z,71.37
2022-12-13T05:11:39.336Z,71.60
2022-12-13T05:14:15.325Z,71.78
2022-12-13T05:16:51.869Z,70.99
2022-12-13T05:19:19.866Z,71.55
2022-12-13T05:21:47.632Z,71.55
2022-12-13T05:24:15.353Z,71.48
2022-12-13T05:26:43.555Z,71.60
2022-12-13T05:29:11.399Z,71.06
2022-12-13T05:31:41.048Z,71.67
2022-12-13T05:34:08.871Z,71.70
2022-12-13T05:36:36.626Z,71.39
2022-12-13T05:39:04.805Z,71.09
2022-12-13T05:41:36.448Z,71.46
2022-12-13T05:44:05.273Z,71.09
2022-12-13T05:46:38.321Z,71.04
2022-12-13T05:49:10.523Z,71.38
2022-12-13T05:51:38.258Z,71.19
2022-12-13T05:54:06.149Z,71.45
2022-12-13T05:56:33.891Z,71.70
2022-12-13T05:59:01.656Z,70.96
2022-12-13T06:01:29.715Z,71.15
2022-12-13T06:03:57.558Z,71.11
2022-12-13T06:06:27.433Z,70.96
2022-12-13T06:08:55.482Z,70.82
2022-12-13T06:11:32.249Z,70.84
2022-12-13T06:14:00.683Z,71.05
2022-12-13T06:16:29.231Z,70.75
2022-12-13T06:19:03.849Z,71.08
2022-12-13T06:21:41.457Z,71.16
2022-12-13T06:24:14.738Z,71.21
2022-12-13T06:26:42.666Z,70.72
2022-12-13T06:29:13.151Z,70.90
2022-12-13T06:34:54.039Z,71.12
2022-12-13T06:37:26.096Z,71.45
2022-12-13T06:39:53.840Z,71.13
2022-12-13T06:42:22.332Z,71.31
2022-12-13T06:44:51.770Z,71.51
2022-12-13T06:47:31.532Z,71.57
2022-12-13T06:50:05.568Z,71.15
2022-12-13T06:52:35.370Z,71.03
2022-12-13T06:55:03.218Z,71.55
2022-12-13T06:57:33.344Z,71.64
2022-12-13T07:00:03.431Z,71.63
2022-12-13T07:02:32.595Z,71.99
2022-12-13T07:05:00.514Z,71.60
2022-12-13T07:07:28.292Z,71.25
2022-12-13T07:09:57.445Z,71.30
2022-12-13T07:12:25.258Z,71.94
2022-12-13T07:14:54.930Z,71.69
2022-12-13T07:17:32.424Z,71.95
2022-12-13T07:20:03.578Z,71.81
2022-12-13T07:22:34.779Z,71.76
2022-12-13T07:25:05.307Z,71.62
2022-12-13T07:27:33.588Z,71.46
2022-12-13T07:30:01.487Z,71.56
2022-12-13T07:32:29.475Z,72.01
2022-12-13T07:34:57.283Z,71.60
2022-12-13T07:37:29.360Z,72.12
2022-12-13T07:40:03.777Z,71.83
2022-12-13T07:42:34.102Z,71.47
2022-12-13T07:45:03.029Z,71.74
2022-12-13T07:47:31.522Z,71.78
2022-12-13T07:49:59.699Z,71.82
2022-12-13T07:52:29.540Z,71.24
2022-12-13T07:54:57.250Z,71.65
2022-12-13T07:57:25.039Z,71.57
2022-12-13T07:59:54.143Z,70.87
2022-12-13T08:02:22.086Z,70.61
2022-12-13T08:04:54.721Z,70.79
2022-12-13T08:07:23.096Z,71.00
2022-12-13T08:09:52.934Z,70.56
2022-12-13T08:12:22.269Z,70.65
2022-12-13T08:14:53.138Z,70.21
2022-12-13T08:17:23.241Z,70.18
2022-12-13T08:19:51.135Z,69.89
2022-12-13T08:22:23.845Z,70.49
2022-12-13T08:24:52.459Z,70.18
2022-12-13T08:27:20.308Z,70.13
2022-12-13T08:29:48.179Z,70.16
2022-12-13T08:32:15.973Z,69.73
2022-12-13T08:34:45.432Z,69.99
2022-12-13T08:37:13.838Z,70.19
2022-12-13T08:39:41.895Z,69.85
2022-12-13T08:42:17.183Z,69.61
2022-12-13T08:44:47.846Z,69.09
2022-12-13T08:47:24.676Z,69.52
2022-12-13T08:50:02.336Z,69.03
2022-12-13T08:52:41.673Z,68.75
2022-12-13T08:55:11.100Z,68.85
2022-12-13T08:57:40.564Z,68.74
2022-12-13T09:00:11.516Z,68.48
2022-12-13T09:02:39.472Z,68.14
2022-12-13T09:05:10.030Z,68.42
2022-12-13T09:07:39.410Z,67.77
2022-12-13T09:10:26.553Z,65.24
2022-12-13T09:13:01.376Z,62.76
2022-12-13T09:15:34.536Z,61.79
2022-12-13T09:18:05.131Z,61.55
2022-12-13T09:20:41.312Z,61.60
2022-12-13T09:23:13.867Z,61.32
2022-12-13T09:25:56.179Z,59.84
2022-12-13T09:28:35.700Z,59.38
2022-12-13T09:31:08.060Z,58.86
2022-12-13T09:33:41.286Z,57.66
2022-12-13T09:36:13.541Z,55.82
2022-12-13T09:38:41.363Z,54.34
2022-12-13T09:41:19.592Z,52.62
2022-12-13T09:43:51.259Z,52.65
2022-12-13T09:46:27.374Z,52.48
2022-12-13T09:49:04.669Z,53.28
2022-12-13T09:51:46.016Z,53.64
2022-12-13T09:54:21.693Z,54.40
2022-12-13T09:56:50.937Z,53.14
2022-12-13T09:59:22.502Z,50.02
2022-12-13T10:01:50.284Z,48.47
2022-12-13T10:04:18.986Z,46.74
2022-12-13T10:06:53.110Z,46.06
2022-12-13T10:09:21.195Z,46.86
2022-12-13T10:11:51.153Z,48.07
2022-12-13T10:14:24.055Z,47.32
2022-12-13T10:16:53.812Z,47.77
2022-12-13T10:19:29.426Z,48.54
2022-12-13T10:22:02.849Z,48.01
2022-12-13T10:24:48.229Z,47.12
2022-12-13T10:27:19.511Z,46.71
2022-12-13T10:30:01.323Z,45.13
2022-12-13T10:32:29.435Z,43.18
2022-12-13T10:35:20.408Z,41.72
2022-12-13T10:37:49.572Z,39.59
2022-12-13T10:40:32.353Z,41.53
2022-12-13T10:43:09.713Z,40.85
2022-12-13T10:45:37.463Z,41.94
2022-12-13T10:48:05.969Z,40.42
2022-12-13T10:50:34.063Z,39.40
2022-12-13T10:53:03.617Z,38.24
2022-12-13T10:55:34.299Z,37.46
2022-12-13T10:58:07.221Z,38.28
2022-12-13T11:00:39.219Z,38.77
2022-12-13T11:03:08.280Z,38.92
2022-12-13T11:05:38.060Z,40.16
2022-12-13T11:08:23.397Z,42.80
2022-12-13T11:10:58.998Z,43.61
2022-12-13T11:13:36.803Z,43.98
2022-12-13T11:16:16.844Z,44.46
2022-12-13T11:18:44.771Z,45.67
2022-12-13T11:21:14.046Z,45.17
2022-12-13T11:23:45.933Z,43.56
2022-12-13T11:26:24.580Z,43.26
2022-12-13T11:29:10.085Z,43.50
2022-12-13T11:31:49.252Z,42.32
2022-12-13T11:34:25.591Z,41.80
2022-12-13T11:36:59.644Z,43.02
2022-12-13T11:39:33.740Z,44.79
2022-12-13T11:42:10.855Z,45.56
2022-12-13T11:44:48.287Z,45.80
2022-12-13T11:47:24.710Z,46.36
2022-12-13T11:49:53.567Z,45.26
2022-12-13T11:52:26.536Z,44.86
2022-12-13T11:55:00.601Z,45.02
2022-12-13T11:57:44.004Z,44.90
2022-12-13T12:00:34.357Z,44.78
2022-12-13T12:03:16.878Z,45.71
2022-12-13T12:05:49.570Z,46.19
2022-12-13T12:08:33.219Z,45.83
2022-12-13T12:11:11.878Z,43.02
2022-12-13T12:13:51.442Z,41.42
2022-12-13T12:16:29.651Z,42.12
2022-12-13T12:19:01.616Z,42.41
2022-12-13T12:22:18.435Z,43.62
2022-12-13T12:24:54.561Z,44.56
2022-12-13T12:27:32.612Z,45.09
2022-12-13T12:30:22.721Z,45.75
2022-12-13T12:32:59.919Z,46.34
2022-12-13T12:35:56.153Z,46.88
2022-12-13T12:38:44.364Z,46.66
2022-12-13T12:41:31.920Z,47.58
2022-12-13T12:44:12.332Z,48.29
2022-12-13T12:47:08.631Z,49.16
2022-12-13T12:50:01.057Z,49.26
2022-12-13T12:52:40.610Z,49.37
2022-12-13T12:55:18.312Z,50.14
2022-12-13T12:57:55.280Z,51.07
2022-12-13T13:00:25.975Z,50.96
2022-12-13T13:03:01.819Z,51.01
2022-12-13T13:05:36.570Z,51.30
2022-12-13T13:08:13.332Z,52.10
2022-12-13T13:10:49.692Z,52.18
2022-12-13T13:13:36.046Z,52.34
2022-12-13T13:16:33.921Z,52.57
2022-12-13T13:19:02.465Z,52.81
2022-12-13T13:21:44.720Z,52.99
2022-12-13T13:24:24.564Z,52.97
2022-12-13T13:26:55.677Z,53.20
2022-12-13T13:29:34.185Z,52.79
2022-12-13T13:32:28.320Z,52.61
2022-12-13T13:35:53.570Z,53.19
2022-12-13T13:38:55.327Z,52.94
2022-12-13T13:41:55.026Z,53.37
2022-12-13T13:44:54.954Z,54.05
2022-12-13T13:47:44.720Z,54.04
2022-12-13T13:50:57.293Z,54.16
2022-12-13T13:54:00.151Z,53.79
2022-12-13T13:56:50.315Z,54.30
2022-12-13T13:59:56.621Z,53.73
2022-12-13T14:02:59.217Z,54.18
2022-12-13T14:06:04.357Z,54.35
2022-12-13T14:08:41.401Z,53.88
2022-12-13T14:11:25.688Z,54.31
2022-12-13T14:14:38.481Z,54.15
2022-12-13T14:17:53.428Z,54.42
2022-12-13T14:20:44.860Z,54.79
2022-12-13T14:23:22.881Z,54.37
2022-12-13T14:26:04.946Z,54.48
2022-12-13T14:28:42.608Z,54.65
2022-12-13T14:31:21.904Z,55.16
2022-12-13T14:33:52.088Z,54.88
2022-12-13T14:36:28.937Z,55.17
2022-12-13T14:39:04.073Z,55.05
2022-12-13T14:41:32.281Z,55.07
2022-12-13T14:44:15.898Z,54.95
2022-12-13T14:46:51.906Z,55.42
2022-12-13T14:49:20.555Z,55.89
2022-12-13T14:52:00.239Z,55.63
2022-12-13T14:54:33.314Z,55.87
2022-12-13T14:57:03.042Z,55.98
2022-12-13T14:59:31.230Z,56.58
2022-12-13T15:02:02.436Z,56.26
2022-12-13T15:04:32.408Z,56.42
2022-12-13T15:07:06.342Z,56.59
2022-12-13T15:09:38.289Z,56.57
2022-12-13T15:12:23.807Z,57.20
2022-12-13T15:14:59.493Z,56.92
2022-12-13T15:17:31.105Z,57.07
2022-12-13T15:20:24.768Z,57.45
2022-12-13T15:23:01.262Z,57.45
2022-12-13T15:25:34.096Z,57.79
2022-12-13T15:28:02.113Z,57.89
2022-12-13T15:30:32.662Z,57.45
2022-12-13T15:33:04.616Z,57.96
2022-12-13T15:35:33.162Z,58.16
2022-12-13T15:38:03.607Z,57.95
2022-12-13T15:40:31.428Z,57.91
2022-12-13T15:42:59.502Z,58.14
2022-12-13T15:45:37.077Z,58.09
2022-12-13T15:48:06.352Z,58.25
2022-12-13T15:50:41.049Z,58.87
2022-12-13T15:53:24.127Z,58.43
2022-12-13T15:55:52.265Z,58.81
2022-12-13T15:58:27.632Z,58.42
2022-12-13T16:00:55.514Z,58.29
2022-12-13T16:03:25.685Z,58.48
2022-12-13T16:05:55.771Z,58.43
2022-12-13T16:08:31.622Z,58.65
2022-12-13T16:11:00.262Z,58.73
2022-12-13T16:13:30.675Z,58.49
2022-12-13T16:16:09.642Z,58.84
2022-12-13T16:18:45.727Z,58.51
2022-12-13T16:21:14.130Z,58.60
2022-12-13T16:23:48.622Z,58.53
2022-12-13T16:26:23.179Z,58.65
2022-12-13T16:28:51.383Z,59.39
2022-12-13T16:31:22.614Z,58.87
2022-12-13T16:33:50.632Z,59.07
2022-12-13T16:36:18.820Z,59.26
2022-12-13T16:38:48.150Z,59.54
2022-12-13T16:41:16.241Z,58.89
2022-12-13T16:43:55.964Z,59.57
2022-12-13T16:47:11.451Z,59.35
2022-12-13T16:49:21.103Z,59.92
2022-12-13T16:51:49.389Z,59.76
2022-12-13T16:54:19.982Z,59.72
2022-12-13T16:56:48.231Z,59.58
2022-12-13T16:59:17.553Z,60.09
2022-12-13T17:01:46.388Z,59.68
2022-12-13T17:04:20.194Z,59.99
2022-12-13T17:06:49.752Z,59.87
2022-12-13T17:09:19.101Z,59.84
2022-12-13T17:11:47.026Z,59.72
2022-12-13T17:14:15.275Z,60.30
2022-12-13T17:16:43.087Z,59.84
2022-12-13T17:19:15.380Z,60.21
2022-12-13T17:21:43.151Z,60.55
2022-12-13T17:24:11.054Z,60.69
2022-12-13T17:26:40.163Z,60.51
2022-12-13T17:29:10.844Z,60.40
2022-12-13T17:31:41.061Z,60.25
2022-12-13T17:34:09.008Z,60.21
2022-12-13T17:36:36.798Z,60.74
2022-12-13T17:39:05.036Z,60.33
2022-12-13T17:41:33.189Z,60.66
2022-12-13T17:44:02.247Z,60.57
2022-12-13T17:46:30.068Z,60.33
2022-12-13T17:48:57.786Z,60.91
2022-12-13T17:51:25.488Z,60.38
2022-12-13T17:53:53.811Z,60.12
2022-12-13T17:56:21.976Z,60.24
2022-12-13T17:58:49.702Z,60.57
2022-12-13T18:01:21.274Z,60.32
2022-12-13T18:03:50.143Z,60.54
2022-12-13T18:06:18.378Z,60.85
2022-12-13T18:08:47.009Z,61.05
2022-12-13T18:11:32.998Z,60.98
2022-12-13T18:14:02.821Z,61.07
2022-12-13T18:16:37.396Z,61.17
2022-12-13T18:19:06.861Z,61.13
2022-12-13T18:21:36.505Z,61.48
2022-12-13T18:24:05.195Z,61.58
2022-12-13T18:26:32.986Z,61.17
2022-12-13T18:29:00.766Z,61.68
2022-12-13T18:31:28.899Z,61.18
2022-12-13T18:33:58.053Z,61.68
2022-12-13T18:36:27.134Z,61.47
2022-12-13T18:38:54.951Z,62.14
2022-12-13T18:41:24.174Z,62.30
2022-12-13T18:43:59.212Z,61.62
2022-12-13T18:46:29.310Z,61.98
2022-12-13T18:48:58.837Z,62.37
2022-12-13T18:51:26.693Z,62.35
2022-12-13T18:53:55.986Z,61.85
2022-12-13T18:56:24.677Z,61.71
2022-12-13T18:58:53.316Z,61.93
2022-12-13T19:01:22.660Z,61.60
2022-12-13T19:03:50.601Z,61.79
2022-12-13T19:06:21.741Z,61.89
2022-12-13T19:08:50.346Z,61.99
2022-12-13T19:11:18.768Z,62.42
2022-12-13T19:13:46.854Z,62.41
2022-12-13T19:16:20.891Z,62.57
2022-12-13T19:18:53.332Z,62.76
2022-12-13T19:21:27.349Z,62.77
2022-12-13T19:24:01.348Z,62.38
2022-12-13T19:26:30.515Z,62.34
2022-12-13T19:29:04.275Z,62.94
2022-12-13T19:32:03.331Z,62.57
2022-12-13T19:34:31.432Z,63.06
2022-12-13T19:37:06.072Z,62.74
2022-12-13T19:39:34.443Z,63.13
2022-12-13T19:42:02.221Z,63.31
2022-12-13T19:44:30.038Z,63.09
2022-12-13T19:46:58.530Z,62.83
2022-12-13T19:49:26.468Z,63.12
2022-12-13T19:51:55.136Z,62.79
2022-12-13T19:54:25.815Z,63.01
2022-12-13T19:56:54.209Z,63.65
2022-12-13T19:59:22.209Z,63.56
2022-12-13T20:01:50.038Z,63.84
2022-12-13T20:04:17.822Z,63.81
2022-12-13T20:06:45.764Z,63.53
2022-12-13T20:09:14.077Z,63.35
2022-12-13T20:11:43.167Z,63.78
2022-12-13T20:14:11.031Z,63.86
2022-12-13T20:16:38.880Z,63.59
2022-12-13T20:19:06.708Z,63.76
2022-12-13T20:21:34.657Z,63.76
2022-12-13T20:24:02.969Z,63.77
2022-12-13T20:26:31.521Z,63.31
2022-12-13T20:29:01.141Z,63.73
2022-12-13T20:31:30.985Z,63.36
2022-12-13T20:34:00.575Z,63.49
2022-12-13T20:36:29.900Z,63.50
2022-12-13T20:38:59.550Z,63.56
2022-12-13T20:41:29.682Z,63.73
2022-12-13T20:43:59.124Z,63.62
2022-12-13T20:46:29.665Z,64.01
2022-12-13T20:48:58.551Z,63.82
2022-12-13T20:51:28.478Z,63.56
2022-12-13T20:53:57.489Z,64.31
2022-12-13T20:56:35.170Z,63.79
2022-12-13T20:59:03.516Z,64.31
2022-12-13T21:01:34.972Z,64.58
2022-12-13T21:04:05.520Z,64.05
2022-12-13T21:06:35.950Z,64.18
2022-12-13T21:09:04.993Z,64.88
2022-12-13T21:11:35.030Z,64.99
2022-12-13T21:14:09.885Z,64.67
2022-12-13T21:16:43.648Z,64.83
2022-12-13T21:19:14.140Z,64.30
2022-12-13T21:21:41.980Z,64.05
2022-12-13T21:24:10.427Z,63.73
2022-12-13T21:26:38.164Z,64.02
2022-12-13T21:29:07.598Z,63.45
2022-12-13T21:31:36.751Z,63.91
2022-12-13T21:34:06.836Z,63.22
2022-12-13T21:36:36.882Z,63.10
2022-12-13T21:39:06.551Z,63.76
2022-12-13T21:41:34.485Z,63.29
2022-12-13T21:44:02.293Z,63.77
2022-12-13T21:47:10.146Z,63.29
2022-12-13T21:49:23.174Z,63.54
2022-12-13T21:51:51.062Z,63.60
2022-12-13T21:54:18.984Z,63.29
2022-12-13T21:57:04.414Z,62.72
2022-12-13T21:59:32.388Z,62.88
2022-12-13T22:02:14.896Z,62.97
2022-12-13T22:04:45.819Z,62.43
2022-12-13T22:07:15.800Z,62.58
2022-12-13T22:09:45.393Z,62.29
2022-12-13T22:12:20.097Z,62.31
2022-12-13T22:14:48.589Z,62.15
2022-12-13T22:17:16.689Z,62.09
2022-12-13T22:19:48.747Z,62.57
2022-12-13T22:22:17.970Z,62.25
2022-12-13T22:24:52.728Z,62.27
2022-12-13T22:27:25.312Z,62.08
2022-12-13T22:29:54.196Z,62.14
2022-12-13T22:32:22.453Z,62.11
2022-12-13T22:34:51.701Z,62.03
2022-12-13T22:37:19.838Z,61.96
2022-12-13T22:39:47.626Z,61.99
2022-12-13T22:42:15.520Z,62.29
2022-12-13T22:44:43.460Z,62.62
2022-12-13T22:47:11.192Z,62.61
2022-12-13T22:49:38.898Z,62.49
2022-12-13T22:52:09.549Z,62.78
2022-12-13T22:54:37.396Z,62.51
2022-12-13T22:57:05.278Z,62.79
2022-12-13T22:59:32.998Z,62.60
2022-12-13T23:02:03.015Z,62.63
2022-12-13T23:04:33.672Z,62.58
2022-12-13T23:07:01.830Z,62.97
2022-12-13T23:09:30.878Z,63.05
2022-12-13T23:12:16.111Z,62.90
2022-12-13T23:14:43.961Z,63.13
2022-12-13T23:17:11.697Z,63.31
2022-12-13T23:19:49.066Z,63.18
2022-12-13T23:22:19.512Z,62.78
2022-12-13T23:24:48.600Z,62.68
2022-12-13T23:27:16.902Z,62.63
2022-12-13T23:29:45.130Z,62.90
2022-12-13T23:32:13.044Z,62.71
2022-12-13T23:34:40.715Z,62.88
2022-12-13T23:37:08.461Z,62.95
2022-12-13T23:39:36.324Z,62.99
2022-12-13T23:42:05.581Z,63.08
2022-12-13T23:44:33.545Z,63.73
2022-12-13T23:47:01.367Z,63.69
2022-12-13T23:49:29.409Z,62.95
2022-12-13T23:51:57.117Z,63.49
2022-12-13T23:54:24.841Z,63.51
2022-12-13T23:56:52.568Z,63.36
2022-12-13T23:59:21.626Z,63.67
